sensor_id;sensor_type;location;lat;lon;timestamp;P1;durP1;ratioP1;P2;durP2;ratioP2
3601;SDS011;1815;50.950;6.920;2023-07-29T00:01:40;1.50;;;0.90;;
3601;SDS011;1815;50.950;6.920;2023-07-29T00:04:06;1.83;;;0.80;;
3601;SDS011;1815;50.950;6.920;2023-07-29T00:06:34;1.77;;;0.97;;
3601;SDS011;1815;50.950;6.920;2023-07-29T00:09:00;3.93;;;1.00;;
3601;SDS011;1815;50.950;6.920;2023-07-29T00:11:26;2.20;;;0.80;;
3601;SDS011;1815;50.950;6.920;2023-07-29T00:13:51;1.50;;;0.80;;
3601;SDS011;1815;50.950;6.920;2023-07-29T00:16:18;2.00;;;0.87;;
3601;SDS011;1815;50.950;6.920;2023-07-29T00:18:47;2.00;;;1.10;;
3601;SDS011;1815;50.950;6.920;2023-07-29T00:21:13;1.80;;;1.00;;
3601;SDS011;1815;50.950;6.920;2023-07-29T00:23:39;1.70;;;0.83;;
3601;SDS011;1815;50.950;6.920;2023-07-29T00:26:04;1.60;;;1.00;;
3601;SDS011;1815;50.950;6.920;2023-07-29T00:28:30;2.47;;;1.00;;
3601;SDS011;1815;50.950;6.920;2023-07-29T00:30:56;2.10;;;1.07;;
3601;SDS011;1815;50.950;6.920;2023-07-29T00:33:21;3.87;;;0.93;;
3601;SDS011;1815;50.950;6.920;2023-07-29T00:35:47;1.73;;;1.00;;
3601;SDS011;1815;50.950;6.920;2023-07-29T00:38:13;2.50;;;1.13;;
3601;SDS011;1815;50.950;6.920;2023-07-29T00:40:39;1.67;;;1.00;;
3601;SDS011;1815;50.950;6.920;2023-07-29T00:43:04;1.60;;;0.90;;
3601;SDS011;1815;50.950;6.920;2023-07-29T00:45:30;2.53;;;1.10;;
3601;SDS011;1815;50.950;6.920;2023-07-29T00:47:58;1.50;;;1.00;;
3601;SDS011;1815;50.950;6.920;2023-07-29T00:50:24;1.87;;;0.90;;
3601;SDS011;1815;50.950;6.920;2023-07-29T00:52:53;2.83;;;1.10;;
3601;SDS011;1815;50.950;6.920;2023-07-29T00:55:22;1.70;;;0.90;;
3601;SDS011;1815;50.950;6.920;2023-07-29T00:57:48;2.53;;;1.20;;
3601;SDS011;1815;50.950;6.920;2023-07-29T01:00:16;1.73;;;1.10;;
3601;SDS011;1815;50.950;6.920;2023-07-29T01:02:42;1.53;;;0.90;;
3601;SDS011;1815;50.950;6.920;2023-07-29T01:05:09;2.17;;;0.90;;
3601;SDS011;1815;50.950;6.920;2023-07-29T01:10:58;2.10;;;1.10;;
3601;SDS011;1815;50.950;6.920;2023-07-29T01:13:31;3.50;;;0.97;;
3601;SDS011;1815;50.950;6.920;2023-07-29T01:16:25;1.40;;;0.80;;
3601;SDS011;1815;50.950;6.920;2023-07-29T01:19:45;2.70;;;0.90;;
3601;SDS011;1815;50.950;6.920;2023-07-29T01:22:11;2.23;;;0.80;;
3601;SDS011;1815;50.950;6.920;2023-07-29T01:24:38;1.73;;;0.90;;
3601;SDS011;1815;50.950;6.920;2023-07-29T01:27:04;1.40;;;0.90;;
3601;SDS011;1815;50.950;6.920;2023-07-29T01:29:30;1.50;;;0.90;;
3601;SDS011;1815;50.950;6.920;2023-07-29T01:31:57;2.47;;;1.03;;
3601;SDS011;1815;50.950;6.920;2023-07-29T01:34:29;1.43;;;0.80;;
3601;SDS011;1815;50.950;6.920;2023-07-29T01:37:00;1.50;;;0.90;;
3601;SDS011;1815;50.950;6.920;2023-07-29T01:39:31;2.40;;;1.03;;
3601;SDS011;1815;50.950;6.920;2023-07-29T01:41:59;2.63;;;1.23;;
3601;SDS011;1815;50.950;6.920;2023-07-29T01:44:27;1.93;;;1.00;;
3601;SDS011;1815;50.950;6.920;2023-07-29T01:46:54;2.20;;;1.03;;
3601;SDS011;1815;50.950;6.920;2023-07-29T01:49:23;1.90;;;0.93;;
3601;SDS011;1815;50.950;6.920;2023-07-29T01:51:50;2.53;;;1.27;;
3601;SDS011;1815;50.950;6.920;2023-07-29T01:54:16;2.47;;;1.27;;
3601;SDS011;1815;50.950;6.920;2023-07-29T01:56:41;1.60;;;1.00;;
3601;SDS011;1815;50.950;6.920;2023-07-29T01:59:07;1.73;;;1.00;;
3601;SDS011;1815;50.950;6.920;2023-07-29T02:01:33;1.60;;;1.07;;
3601;SDS011;1815;50.950;6.920;2023-07-29T02:03:59;3.13;;;1.43;;
3601;SDS011;1815;50.950;6.920;2023-07-29T02:06:24;2.43;;;1.10;;
3601;SDS011;1815;50.950;6.920;2023-07-29T02:08:52;1.70;;;1.20;;
3601;SDS011;1815;50.950;6.920;2023-07-29T02:11:19;1.83;;;1.00;;
3601;SDS011;1815;50.950;6.920;2023-07-29T02:13:52;1.70;;;1.03;;
3601;SDS011;1815;50.950;6.920;2023-07-29T02:16:18;2.63;;;1.00;;
3601;SDS011;1815;50.950;6.920;2023-07-29T02:18:44;1.60;;;0.93;;
3601;SDS011;1815;50.950;6.920;2023-07-29T02:21:10;1.70;;;1.00;;
3601;SDS011;1815;50.950;6.920;2023-07-29T02:23:36;1.80;;;1.00;;
3601;SDS011;1815;50.950;6.920;2023-07-29T02:26:01;2.37;;;1.50;;
3601;SDS011;1815;50.950;6.920;2023-07-29T02:28:27;2.20;;;1.03;;
3601;SDS011;1815;50.950;6.920;2023-07-29T02:33:55;1.90;;;1.00;;
3601;SDS011;1815;50.950;6.920;2023-07-29T02:36:23;1.50;;;0.87;;
3601;SDS011;1815;50.950;6.920;2023-07-29T02:38:49;2.47;;;1.23;;
3601;SDS011;1815;50.950;6.920;2023-07-29T02:41:14;1.90;;;1.07;;
3601;SDS011;1815;50.950;6.920;2023-07-29T02:43:42;2.67;;;1.30;;
3601;SDS011;1815;50.950;6.920;2023-07-29T02:46:14;1.80;;;0.80;;
3601;SDS011;1815;50.950;6.920;2023-07-29T02:48:40;2.47;;;0.80;;
3601;SDS011;1815;50.950;6.920;2023-07-29T02:51:07;1.37;;;0.70;;
3601;SDS011;1815;50.950;6.920;2023-07-29T02:53:32;2.27;;;0.90;;
3601;SDS011;1815;50.950;6.920;2023-07-29T02:55:58;1.50;;;0.60;;
3601;SDS011;1815;50.950;6.920;2023-07-29T02:58:24;2.03;;;0.70;;
3601;SDS011;1815;50.950;6.920;2023-07-29T03:00:51;2.53;;;0.60;;
3601;SDS011;1815;50.950;6.920;2023-07-29T03:03:17;2.27;;;0.77;;
3601;SDS011;1815;50.950;6.920;2023-07-29T03:05:44;1.53;;;1.00;;
3601;SDS011;1815;50.950;6.920;2023-07-29T03:08:10;2.93;;;0.70;;
3601;SDS011;1815;50.950;6.920;2023-07-29T03:10:36;2.13;;;0.80;;
3601;SDS011;1815;50.950;6.920;2023-07-29T03:13:01;2.80;;;0.60;;
3601;SDS011;1815;50.950;6.920;2023-07-29T03:15:28;1.40;;;0.70;;
3601;SDS011;1815;50.950;6.920;2023-07-29T03:17:53;1.70;;;0.80;;
3601;SDS011;1815;50.950;6.920;2023-07-29T03:20:19;1.40;;;0.70;;
3601;SDS011;1815;50.950;6.920;2023-07-29T03:22:46;1.43;;;0.70;;
3601;SDS011;1815;50.950;6.920;2023-07-29T03:25:12;1.50;;;0.80;;
3601;SDS011;1815;50.950;6.920;2023-07-29T03:27:38;1.80;;;0.70;;
3601;SDS011;1815;50.950;6.920;2023-07-29T03:30:05;2.30;;;0.87;;
3601;SDS011;1815;50.950;6.920;2023-07-29T03:32:32;1.63;;;0.63;;
3601;SDS011;1815;50.950;6.920;2023-07-29T03:34:58;2.43;;;0.73;;
3601;SDS011;1815;50.950;6.920;2023-07-29T03:37:24;1.40;;;0.60;;
3601;SDS011;1815;50.950;6.920;2023-07-29T03:39:49;1.43;;;0.60;;
3601;SDS011;1815;50.950;6.920;2023-07-29T03:42:17;1.73;;;0.90;;
3601;SDS011;1815;50.950;6.920;2023-07-29T03:44:43;1.47;;;0.77;;
3601;SDS011;1815;50.950;6.920;2023-07-29T03:47:09;1.53;;;0.70;;
3601;SDS011;1815;50.950;6.920;2023-07-29T03:49:38;1.60;;;0.70;;
3601;SDS011;1815;50.950;6.920;2023-07-29T03:52:05;1.50;;;0.67;;
3601;SDS011;1815;50.950;6.920;2023-07-29T03:54:31;1.60;;;0.80;;
3601;SDS011;1815;50.950;6.920;2023-07-29T03:56:56;2.20;;;0.77;;
3601;SDS011;1815;50.950;6.920;2023-07-29T03:59:22;2.50;;;0.70;;
3601;SDS011;1815;50.950;6.920;2023-07-29T04:01:48;1.80;;;0.70;;
3601;SDS011;1815;50.950;6.920;2023-07-29T04:04:14;1.57;;;0.70;;
3601;SDS011;1815;50.950;6.920;2023-07-29T04:06:40;2.07;;;0.70;;
3601;SDS011;1815;50.950;6.920;2023-07-29T04:09:06;1.40;;;0.63;;
3601;SDS011;1815;50.950;6.920;2023-07-29T04:11:33;1.97;;;0.70;;
3601;SDS011;1815;50.950;6.920;2023-07-29T04:13:59;1.83;;;0.70;;
3601;SDS011;1815;50.950;6.920;2023-07-29T04:16:25;1.40;;;0.80;;
3601;SDS011;1815;50.950;6.920;2023-07-29T04:18:51;2.53;;;0.80;;
3601;SDS011;1815;50.950;6.920;2023-07-29T04:21:17;2.10;;;0.87;;
3601;SDS011;1815;50.950;6.920;2023-07-29T04:23:42;1.77;;;0.87;;
3601;SDS011;1815;50.950;6.920;2023-07-29T04:26:08;1.90;;;1.03;;
3601;SDS011;1815;50.950;6.920;2023-07-29T04:28:34;1.30;;;0.70;;
3601;SDS011;1815;50.950;6.920;2023-07-29T04:30:59;1.40;;;0.90;;
3601;SDS011;1815;50.950;6.920;2023-07-29T04:33:26;2.50;;;0.70;;
3601;SDS011;1815;50.950;6.920;2023-07-29T04:35:52;1.47;;;0.87;;
3601;SDS011;1815;50.950;6.920;2023-07-29T04:38:18;2.90;;;1.00;;
3601;SDS011;1815;50.950;6.920;2023-07-29T04:40:44;2.73;;;0.90;;
3601;SDS011;1815;50.950;6.920;2023-07-29T04:43:09;1.80;;;0.90;;
3601;SDS011;1815;50.950;6.920;2023-07-29T04:45:35;2.40;;;1.00;;
3601;SDS011;1815;50.950;6.920;2023-07-29T04:48:01;1.90;;;1.17;;
3601;SDS011;1815;50.950;6.920;2023-07-29T04:50:26;1.50;;;1.10;;
3601;SDS011;1815;50.950;6.920;2023-07-29T04:52:52;2.87;;;0.93;;
3601;SDS011;1815;50.950;6.920;2023-07-29T04:55:18;2.20;;;1.00;;
3601;SDS011;1815;50.950;6.920;2023-07-29T04:57:44;2.07;;;1.07;;
3601;SDS011;1815;50.950;6.920;2023-07-29T05:00:09;3.60;;;1.07;;
3601;SDS011;1815;50.950;6.920;2023-07-29T05:02:36;4.90;;;1.57;;
3601;SDS011;1815;50.950;6.920;2023-07-29T05:05:01;2.10;;;1.17;;
3601;SDS011;1815;50.950;6.920;2023-07-29T05:07:28;3.90;;;1.10;;
3601;SDS011;1815;50.950;6.920;2023-07-29T05:09:53;1.80;;;1.23;;
3601;SDS011;1815;50.950;6.920;2023-07-29T05:12:19;2.83;;;1.20;;
3601;SDS011;1815;50.950;6.920;2023-07-29T05:14:45;2.53;;;1.20;;
3601;SDS011;1815;50.950;6.920;2023-07-29T05:17:10;2.57;;;1.00;;
3601;SDS011;1815;50.950;6.920;2023-07-29T05:19:36;2.30;;;1.30;;
3601;SDS011;1815;50.950;6.920;2023-07-29T05:22:02;3.13;;;1.70;;
3601;SDS011;1815;50.950;6.920;2023-07-29T05:24:27;1.70;;;1.10;;
3601;SDS011;1815;50.950;6.920;2023-07-29T05:26:53;1.63;;;1.07;;
3601;SDS011;1815;50.950;6.920;2023-07-29T05:29:19;2.23;;;1.30;;
3601;SDS011;1815;50.950;6.920;2023-07-29T05:31:45;3.80;;;1.50;;
3601;SDS011;1815;50.950;6.920;2023-07-29T05:34:11;2.13;;;1.10;;
3601;SDS011;1815;50.950;6.920;2023-07-29T05:36:37;3.10;;;1.30;;
3601;SDS011;1815;50.950;6.920;2023-07-29T05:39:02;1.93;;;1.10;;
3601;SDS011;1815;50.950;6.920;2023-07-29T05:41:29;1.70;;;1.00;;
3601;SDS011;1815;50.950;6.920;2023-07-29T05:43:54;2.10;;;1.20;;
3601;SDS011;1815;50.950;6.920;2023-07-29T05:46:20;2.43;;;1.43;;
3601;SDS011;1815;50.950;6.920;2023-07-29T05:48:46;2.20;;;1.40;;
3601;SDS011;1815;50.950;6.920;2023-07-29T05:51:11;4.20;;;1.33;;
3601;SDS011;1815;50.950;6.920;2023-07-29T05:53:37;1.97;;;1.40;;
3601;SDS011;1815;50.950;6.920;2023-07-29T05:56:03;4.83;;;1.83;;
3601;SDS011;1815;50.950;6.920;2023-07-29T05:58:29;2.10;;;1.20;;
3601;SDS011;1815;50.950;6.920;2023-07-29T06:00:56;2.40;;;1.30;;
3601;SDS011;1815;50.950;6.920;2023-07-29T06:03:23;1.90;;;1.20;;
3601;SDS011;1815;50.950;6.920;2023-07-29T06:05:50;4.00;;;1.10;;
3601;SDS011;1815;50.950;6.920;2023-07-29T06:08:16;2.40;;;1.20;;
3601;SDS011;1815;50.950;6.920;2023-07-29T06:10:41;1.90;;;1.10;;
3601;SDS011;1815;50.950;6.920;2023-07-29T06:13:07;2.43;;;1.37;;
3601;SDS011;1815;50.950;6.920;2023-07-29T06:15:33;3.10;;;1.20;;
3601;SDS011;1815;50.950;6.920;2023-07-29T06:17:59;1.90;;;1.00;;
3601;SDS011;1815;50.950;6.920;2023-07-29T06:20:24;4.97;;;1.20;;
3601;SDS011;1815;50.950;6.920;2023-07-29T06:22:50;3.57;;;0.97;;
3601;SDS011;1815;50.950;6.920;2023-07-29T06:25:16;3.50;;;1.00;;
3601;SDS011;1815;50.950;6.920;2023-07-29T06:27:42;2.30;;;1.10;;
3601;SDS011;1815;50.950;6.920;2023-07-29T06:30:07;2.13;;;1.00;;
3601;SDS011;1815;50.950;6.920;2023-07-29T06:32:34;1.40;;;0.83;;
3601;SDS011;1815;50.950;6.920;2023-07-29T06:34:59;1.63;;;0.80;;
3601;SDS011;1815;50.950;6.920;2023-07-29T06:37:26;2.40;;;0.90;;
3601;SDS011;1815;50.950;6.920;2023-07-29T06:39:52;1.60;;;0.70;;
3601;SDS011;1815;50.950;6.920;2023-07-29T06:42:17;3.13;;;0.90;;
3601;SDS011;1815;50.950;6.920;2023-07-29T06:44:43;2.80;;;0.80;;
3601;SDS011;1815;50.950;6.920;2023-07-29T06:47:11;2.03;;;0.80;;
3601;SDS011;1815;50.950;6.920;2023-07-29T06:49:37;1.73;;;0.90;;
3601;SDS011;1815;50.950;6.920;2023-07-29T06:52:02;3.33;;;0.70;;
3601;SDS011;1815;50.950;6.920;2023-07-29T06:54:28;3.23;;;1.00;;
3601;SDS011;1815;50.950;6.920;2023-07-29T06:56:54;2.20;;;0.87;;
3601;SDS011;1815;50.950;6.920;2023-07-29T06:59:29;4.13;;;0.90;;
3601;SDS011;1815;50.950;6.920;2023-07-29T07:01:59;3.03;;;0.80;;
3601;SDS011;1815;50.950;6.920;2023-07-29T07:04:26;1.73;;;0.73;;
3601;SDS011;1815;50.950;6.920;2023-07-29T07:06:51;2.10;;;1.10;;
3601;SDS011;1815;50.950;6.920;2023-07-29T07:09:17;2.17;;;0.90;;
3601;SDS011;1815;50.950;6.920;2023-07-29T07:12:01;1.87;;;0.97;;
3601;SDS011;1815;50.950;6.920;2023-07-29T07:14:27;2.37;;;0.77;;
3601;SDS011;1815;50.950;6.920;2023-07-29T07:16:52;1.60;;;0.80;;
3601;SDS011;1815;50.950;6.920;2023-07-29T07:19:18;2.60;;;1.47;;
3601;SDS011;1815;50.950;6.920;2023-07-29T07:21:44;1.60;;;0.80;;
3601;SDS011;1815;50.950;6.920;2023-07-29T07:24:09;1.50;;;0.90;;
3601;SDS011;1815;50.950;6.920;2023-07-29T07:26:35;2.37;;;0.90;;
3601;SDS011;1815;50.950;6.920;2023-07-29T07:29:01;1.60;;;0.87;;
3601;SDS011;1815;50.950;6.920;2023-07-29T07:31:26;1.83;;;1.00;;
3601;SDS011;1815;50.950;6.920;2023-07-29T07:33:52;1.67;;;0.90;;
3601;SDS011;1815;50.950;6.920;2023-07-29T07:36:18;1.43;;;0.77;;
3601;SDS011;1815;50.950;6.920;2023-07-29T07:38:43;4.13;;;0.80;;
3601;SDS011;1815;50.950;6.920;2023-07-29T07:41:09;4.20;;;0.93;;
3601;SDS011;1815;50.950;6.920;2023-07-29T07:43:35;1.67;;;0.80;;
3601;SDS011;1815;50.950;6.920;2023-07-29T07:50:19;2.50;;;0.77;;
3601;SDS011;1815;50.950;6.920;2023-07-29T07:52:45;2.07;;;1.10;;
3601;SDS011;1815;50.950;6.920;2023-07-29T07:55:11;1.83;;;0.87;;
3601;SDS011;1815;50.950;6.920;2023-07-29T07:57:36;3.73;;;0.83;;
3601;SDS011;1815;50.950;6.920;2023-07-29T08:00:02;2.50;;;1.30;;
3601;SDS011;1815;50.950;6.920;2023-07-29T08:02:38;2.17;;;1.00;;
3601;SDS011;1815;50.950;6.920;2023-07-29T08:08:22;2.33;;;0.90;;
3601;SDS011;1815;50.950;6.920;2023-07-29T08:10:48;2.13;;;1.23;;
3601;SDS011;1815;50.950;6.920;2023-07-29T08:13:14;3.87;;;1.00;;
3601;SDS011;1815;50.950;6.920;2023-07-29T08:15:40;2.00;;;1.13;;
3601;SDS011;1815;50.950;6.920;2023-07-29T08:18:06;1.90;;;0.80;;
3601;SDS011;1815;50.950;6.920;2023-07-29T08:20:32;2.43;;;1.00;;
3601;SDS011;1815;50.950;6.920;2023-07-29T08:22:58;1.80;;;0.70;;
3601;SDS011;1815;50.950;6.920;2023-07-29T08:25:23;2.30;;;0.80;;
3601;SDS011;1815;50.950;6.920;2023-07-29T08:27:49;2.43;;;0.80;;
3601;SDS011;1815;50.950;6.920;2023-07-29T08:30:15;1.73;;;0.87;;
3601;SDS011;1815;50.950;6.920;2023-07-29T08:32:41;1.43;;;0.70;;
3601;SDS011;1815;50.950;6.920;2023-07-29T08:35:07;1.70;;;0.90;;
3601;SDS011;1815;50.950;6.920;2023-07-29T08:37:33;1.47;;;0.60;;
3601;SDS011;1815;50.950;6.920;2023-07-29T08:39:59;2.40;;;0.60;;
3601;SDS011;1815;50.950;6.920;2023-07-29T08:42:27;2.50;;;0.80;;
3601;SDS011;1815;50.950;6.920;2023-07-29T08:44:56;1.70;;;0.63;;
3601;SDS011;1815;50.950;6.920;2023-07-29T08:47:23;1.77;;;0.70;;
3601;SDS011;1815;50.950;6.920;2023-07-29T08:49:49;1.70;;;0.60;;
3601;SDS011;1815;50.950;6.920;2023-07-29T08:52:17;1.40;;;0.70;;
3601;SDS011;1815;50.950;6.920;2023-07-29T08:54:43;2.70;;;0.60;;
3601;SDS011;1815;50.950;6.920;2023-07-29T08:57:09;2.13;;;0.63;;
3601;SDS011;1815;50.950;6.920;2023-07-29T08:59:35;2.33;;;0.83;;
3601;SDS011;1815;50.950;6.920;2023-07-29T09:02:02;1.50;;;0.60;;
3601;SDS011;1815;50.950;6.920;2023-07-29T09:04:28;2.33;;;0.63;;
3601;SDS011;1815;50.950;6.920;2023-07-29T09:06:57;1.77;;;0.77;;
3601;SDS011;1815;50.950;6.920;2023-07-29T09:09:27;1.90;;;0.70;;
3601;SDS011;1815;50.950;6.920;2023-07-29T09:11:53;1.50;;;0.70;;
3601;SDS011;1815;50.950;6.920;2023-07-29T09:14:19;2.00;;;0.50;;
3601;SDS011;1815;50.950;6.920;2023-07-29T09:16:45;1.40;;;0.60;;
3601;SDS011;1815;50.950;6.920;2023-07-29T09:19:11;1.60;;;0.60;;
3601;SDS011;1815;50.950;6.920;2023-07-29T09:21:46;1.53;;;0.70;;
3601;SDS011;1815;50.950;6.920;2023-07-29T09:24:12;4.17;;;0.70;;
3601;SDS011;1815;50.950;6.920;2023-07-29T09:26:48;1.77;;;0.60;;
3601;SDS011;1815;50.950;6.920;2023-07-29T09:29:14;2.80;;;2.10;;
3601;SDS011;1815;50.950;6.920;2023-07-29T09:31:40;3.00;;;0.60;;
3601;SDS011;1815;50.950;6.920;2023-07-29T09:34:06;1.40;;;0.70;;
3601;SDS011;1815;50.950;6.920;2023-07-29T09:36:32;2.97;;;0.60;;
3601;SDS011;1815;50.950;6.920;2023-07-29T09:39:02;1.67;;;0.80;;
3601;SDS011;1815;50.950;6.920;2023-07-29T09:41:29;2.07;;;0.70;;
3601;SDS011;1815;50.950;6.920;2023-07-29T09:43:58;1.90;;;0.80;;
3601;SDS011;1815;50.950;6.920;2023-07-29T09:46:31;2.13;;;0.90;;
3601;SDS011;1815;50.950;6.920;2023-07-29T09:48:58;1.70;;;0.80;;
3601;SDS011;1815;50.950;6.920;2023-07-29T09:51:26;1.97;;;0.70;;
3601;SDS011;1815;50.950;6.920;2023-07-29T09:53:52;1.57;;;0.97;;
3601;SDS011;1815;50.950;6.920;2023-07-29T09:56:27;2.20;;;0.70;;
3601;SDS011;1815;50.950;6.920;2023-07-29T09:58:53;2.13;;;0.70;;
3601;SDS011;1815;50.950;6.920;2023-07-29T10:01:21;2.07;;;0.70;;
3601;SDS011;1815;50.950;6.920;2023-07-29T10:03:47;1.50;;;0.70;;
3601;SDS011;1815;50.950;6.920;2023-07-29T10:06:14;1.40;;;0.60;;
3601;SDS011;1815;50.950;6.920;2023-07-29T10:08:40;1.30;;;0.60;;
3601;SDS011;1815;50.950;6.920;2023-07-29T10:11:10;2.83;;;0.70;;
3601;SDS011;1815;50.950;6.920;2023-07-29T10:13:37;2.37;;;0.60;;
3601;SDS011;1815;50.950;6.920;2023-07-29T10:16:03;1.67;;;0.67;;
3601;SDS011;1815;50.950;6.920;2023-07-29T10:18:30;1.40;;;0.80;;
3601;SDS011;1815;50.950;6.920;2023-07-29T10:20:58;2.03;;;0.70;;
3601;SDS011;1815;50.950;6.920;2023-07-29T10:23:27;1.40;;;0.70;;
3601;SDS011;1815;50.950;6.920;2023-07-29T10:28:29;1.40;;;0.60;;
3601;SDS011;1815;50.950;6.920;2023-07-29T10:30:56;2.40;;;0.80;;
3601;SDS011;1815;50.950;6.920;2023-07-29T10:33:23;2.70;;;0.60;;
3601;SDS011;1815;50.950;6.920;2023-07-29T10:35:49;2.70;;;1.03;;
3601;SDS011;1815;50.950;6.920;2023-07-29T10:38:15;1.70;;;0.77;;
3601;SDS011;1815;50.950;6.920;2023-07-29T10:40:45;1.73;;;0.63;;
3601;SDS011;1815;50.950;6.920;2023-07-29T10:46:38;1.60;;;0.70;;
3601;SDS011;1815;50.950;6.920;2023-07-29T10:49:04;1.50;;;0.73;;
3601;SDS011;1815;50.950;6.920;2023-07-29T10:51:30;2.27;;;0.70;;
3601;SDS011;1815;50.950;6.920;2023-07-29T10:54:01;1.43;;;0.60;;
3601;SDS011;1815;50.950;6.920;2023-07-29T10:56:31;1.50;;;0.70;;
3601;SDS011;1815;50.950;6.920;2023-07-29T10:58:59;1.40;;;0.70;;
3601;SDS011;1815;50.950;6.920;2023-07-29T11:01:51;1.50;;;0.70;;
3601;SDS011;1815;50.950;6.920;2023-07-29T11:15:27;1.93;;;0.70;;
3601;SDS011;1815;50.950;6.920;2023-07-29T11:20:26;2.20;;;0.70;;
3601;SDS011;1815;50.950;6.920;2023-07-29T11:22:54;1.60;;;0.70;;
3601;SDS011;1815;50.950;6.920;2023-07-29T11:25:21;1.50;;;0.70;;
3601;SDS011;1815;50.950;6.920;2023-07-29T11:27:48;1.37;;;0.70;;
3601;SDS011;1815;50.950;6.920;2023-07-29T11:30:17;1.50;;;0.70;;
3601;SDS011;1815;50.950;6.920;2023-07-29T11:32:43;1.70;;;0.77;;
3601;SDS011;1815;50.950;6.920;2023-07-29T11:35:16;2.03;;;0.67;;
3601;SDS011;1815;50.950;6.920;2023-07-29T11:37:44;1.60;;;0.83;;
3601;SDS011;1815;50.950;6.920;2023-07-29T11:40:15;2.43;;;0.70;;
3601;SDS011;1815;50.950;6.920;2023-07-29T11:42:42;1.50;;;0.80;;
3601;SDS011;1815;50.950;6.920;2023-07-29T11:45:08;1.70;;;0.67;;
3601;SDS011;1815;50.950;6.920;2023-07-29T11:47:35;1.40;;;0.73;;
3601;SDS011;1815;50.950;6.920;2023-07-29T11:50:02;2.10;;;0.83;;
3601;SDS011;1815;50.950;6.920;2023-07-29T11:52:42;2.27;;;1.07;;
3601;SDS011;1815;50.950;6.920;2023-07-29T11:55:09;1.50;;;0.70;;
3601;SDS011;1815;50.950;6.920;2023-07-29T11:57:35;1.63;;;0.80;;
3601;SDS011;1815;50.950;6.920;2023-07-29T12:00:06;1.70;;;0.70;;
3601;SDS011;1815;50.950;6.920;2023-07-29T12:02:38;1.50;;;0.60;;
3601;SDS011;1815;50.950;6.920;2023-07-29T12:05:05;1.70;;;0.70;;
3601;SDS011;1815;50.950;6.920;2023-07-29T12:07:33;1.40;;;0.70;;
3601;SDS011;1815;50.950;6.920;2023-07-29T12:09:59;1.50;;;0.80;;
3601;SDS011;1815;50.950;6.920;2023-07-29T12:12:26;1.30;;;0.60;;
3601;SDS011;1815;50.950;6.920;2023-07-29T12:14:53;1.60;;;0.70;;
3601;SDS011;1815;50.950;6.920;2023-07-29T12:17:19;1.40;;;0.70;;
3601;SDS011;1815;50.950;6.920;2023-07-29T12:19:45;1.90;;;0.73;;
3601;SDS011;1815;50.950;6.920;2023-07-29T12:22:11;1.50;;;0.60;;
3601;SDS011;1815;50.950;6.920;2023-07-29T12:24:37;2.97;;;1.03;;
3601;SDS011;1815;50.950;6.920;2023-07-29T12:27:05;2.70;;;1.20;;
3601;SDS011;1815;50.950;6.920;2023-07-29T12:29:39;1.90;;;0.80;;
3601;SDS011;1815;50.950;6.920;2023-07-29T12:32:06;1.73;;;0.83;;
3601;SDS011;1815;50.950;6.920;2023-07-29T12:34:31;1.60;;;0.60;;
3601;SDS011;1815;50.950;6.920;2023-07-29T12:36:58;1.50;;;0.77;;
3601;SDS011;1815;50.950;6.920;2023-07-29T12:39:28;1.40;;;0.70;;
3601;SDS011;1815;50.950;6.920;2023-07-29T12:41:55;2.80;;;0.80;;
3601;SDS011;1815;50.950;6.920;2023-07-29T12:44:30;2.27;;;0.60;;
3601;SDS011;1815;50.950;6.920;2023-07-29T12:46:57;4.13;;;1.17;;
3601;SDS011;1815;50.950;6.920;2023-07-29T12:49:26;1.60;;;0.93;;
3601;SDS011;1815;50.950;6.920;2023-07-29T12:51:53;2.00;;;1.20;;
3601;SDS011;1815;50.950;6.920;2023-07-29T12:54:19;3.33;;;1.60;;
3601;SDS011;1815;50.950;6.920;2023-07-29T12:56:45;3.30;;;2.93;;
3601;SDS011;1815;50.950;6.920;2023-07-29T12:59:10;2.33;;;1.53;;
3601;SDS011;1815;50.950;6.920;2023-07-29T13:01:37;1.70;;;0.97;;
3601;SDS011;1815;50.950;6.920;2023-07-29T13:04:02;1.67;;;0.90;;
3601;SDS011;1815;50.950;6.920;2023-07-29T13:06:28;2.80;;;1.00;;
3601;SDS011;1815;50.950;6.920;2023-07-29T13:08:54;1.90;;;0.97;;
3601;SDS011;1815;50.950;6.920;2023-07-29T13:11:20;1.70;;;0.73;;
3601;SDS011;1815;50.950;6.920;2023-07-29T13:13:45;2.33;;;1.03;;
3601;SDS011;1815;50.950;6.920;2023-07-29T13:16:11;1.70;;;0.70;;
3601;SDS011;1815;50.950;6.920;2023-07-29T13:18:38;3.20;;;0.70;;
3601;SDS011;1815;50.950;6.920;2023-07-29T13:21:04;1.93;;;0.80;;
3601;SDS011;1815;50.950;6.920;2023-07-29T13:23:29;2.10;;;0.80;;
3601;SDS011;1815;50.950;6.920;2023-07-29T13:25:55;1.77;;;0.70;;
3601;SDS011;1815;50.950;6.920;2023-07-29T13:28:22;1.60;;;0.70;;
3601;SDS011;1815;50.950;6.920;2023-07-29T13:30:48;1.53;;;0.70;;
3601;SDS011;1815;50.950;6.920;2023-07-29T13:33:14;1.90;;;0.70;;
3601;SDS011;1815;50.950;6.920;2023-07-29T13:35:40;2.23;;;0.80;;
3601;SDS011;1815;50.950;6.920;2023-07-29T13:38:06;1.93;;;0.80;;
3601;SDS011;1815;50.950;6.920;2023-07-29T13:40:31;1.70;;;0.73;;
3601;SDS011;1815;50.950;6.920;2023-07-29T13:42:57;1.70;;;0.90;;
3601;SDS011;1815;50.950;6.920;2023-07-29T13:45:23;2.90;;;0.90;;
3601;SDS011;1815;50.950;6.920;2023-07-29T13:47:58;2.90;;;1.07;;
3601;SDS011;1815;50.950;6.920;2023-07-29T13:50:24;1.90;;;1.00;;
3601;SDS011;1815;50.950;6.920;2023-07-29T13:52:50;1.70;;;0.80;;
3601;SDS011;1815;50.950;6.920;2023-07-29T13:55:16;2.30;;;0.97;;
3601;SDS011;1815;50.950;6.920;2023-07-29T13:57:41;2.07;;;0.90;;
3601;SDS011;1815;50.950;6.920;2023-07-29T14:00:07;1.80;;;1.10;;
3601;SDS011;1815;50.950;6.920;2023-07-29T14:02:39;2.77;;;1.00;;
3601;SDS011;1815;50.950;6.920;2023-07-29T14:05:05;4.50;;;1.20;;
3601;SDS011;1815;50.950;6.920;2023-07-29T14:07:32;8.27;;;6.57;;
3601;SDS011;1815;50.950;6.920;2023-07-29T14:09:58;5.47;;;4.70;;
3601;SDS011;1815;50.950;6.920;2023-07-29T14:12:23;3.13;;;2.47;;
3601;SDS011;1815;50.950;6.920;2023-07-29T14:14:49;6.73;;;4.30;;
3601;SDS011;1815;50.950;6.920;2023-07-29T14:17:15;5.33;;;4.50;;
3601;SDS011;1815;50.950;6.920;2023-07-29T14:19:40;6.40;;;5.47;;
3601;SDS011;1815;50.950;6.920;2023-07-29T14:22:06;4.00;;;3.17;;
3601;SDS011;1815;50.950;6.920;2023-07-29T14:24:32;6.80;;;3.23;;
3601;SDS011;1815;50.950;6.920;2023-07-29T14:26:57;2.30;;;1.43;;
3601;SDS011;1815;50.950;6.920;2023-07-29T14:29:23;3.33;;;1.67;;
3601;SDS011;1815;50.950;6.920;2023-07-29T14:31:49;3.50;;;2.13;;
3601;SDS011;1815;50.950;6.920;2023-07-29T14:34:14;3.47;;;2.80;;
3601;SDS011;1815;50.950;6.920;2023-07-29T14:36:40;4.73;;;4.20;;
3601;SDS011;1815;50.950;6.920;2023-07-29T14:39:07;3.20;;;2.70;;
3601;SDS011;1815;50.950;6.920;2023-07-29T14:41:32;3.00;;;1.70;;
3601;SDS011;1815;50.950;6.920;2023-07-29T14:43:58;2.27;;;1.40;;
3601;SDS011;1815;50.950;6.920;2023-07-29T14:46:24;4.17;;;1.50;;
3601;SDS011;1815;50.950;6.920;2023-07-29T14:48:50;3.00;;;1.30;;
3601;SDS011;1815;50.950;6.920;2023-07-29T14:51:15;3.20;;;1.77;;
3601;SDS011;1815;50.950;6.920;2023-07-29T14:53:41;4.33;;;2.87;;
3601;SDS011;1815;50.950;6.920;2023-07-29T14:56:08;5.23;;;4.37;;
3601;SDS011;1815;50.950;6.920;2023-07-29T14:58:33;6.37;;;4.90;;
3601;SDS011;1815;50.950;6.920;2023-07-29T15:00:59;5.60;;;4.03;;
3601;SDS011;1815;50.950;6.920;2023-07-29T15:03:26;3.90;;;3.47;;
3601;SDS011;1815;50.950;6.920;2023-07-29T15:05:52;2.93;;;2.60;;
3601;SDS011;1815;50.950;6.920;2023-07-29T15:08:18;2.37;;;1.83;;
3601;SDS011;1815;50.950;6.920;2023-07-29T15:10:47;2.60;;;1.60;;
3601;SDS011;1815;50.950;6.920;2023-07-29T15:13:13;2.53;;;1.70;;
3601;SDS011;1815;50.950;6.920;2023-07-29T15:15:43;4.47;;;2.40;;
3601;SDS011;1815;50.950;6.920;2023-07-29T15:18:09;2.80;;;1.93;;
3601;SDS011;1815;50.950;6.920;2023-07-29T15:20:35;2.27;;;1.50;;
3601;SDS011;1815;50.950;6.920;2023-07-29T15:23:01;2.37;;;1.30;;
3601;SDS011;1815;50.950;6.920;2023-07-29T15:25:26;2.73;;;1.13;;
3601;SDS011;1815;50.950;6.920;2023-07-29T15:27:52;5.00;;;3.00;;
3601;SDS011;1815;50.950;6.920;2023-07-29T15:30:20;2.63;;;1.00;;
3601;SDS011;1815;50.950;6.920;2023-07-29T15:32:46;2.10;;;1.13;;
3601;SDS011;1815;50.950;6.920;2023-07-29T15:35:12;1.67;;;0.97;;
3601;SDS011;1815;50.950;6.920;2023-07-29T15:37:38;5.37;;;0.87;;
3601;SDS011;1815;50.950;6.920;2023-07-29T15:40:04;1.93;;;1.33;;
3601;SDS011;1815;50.950;6.920;2023-07-29T15:42:31;1.90;;;1.30;;
3601;SDS011;1815;50.950;6.920;2023-07-29T15:44:57;1.90;;;1.07;;
3601;SDS011;1815;50.950;6.920;2023-07-29T15:47:22;2.77;;;1.20;;